createdAt,value
2022-09-12T00:02:04.411Z,8.77
2022-09-12T00:04:31.824Z,9.55
2022-09-12T00:06:59.079Z,8.07
2022-09-12T00:09:26.094Z,8.52
2022-09-12T00:11:53.254Z,8.77
2022-09-12T00:14:20.454Z,8.63
2022-09-12T00:16:47.765Z,8.95
2022-09-12T00:19:15.547Z,8.80
2022-09-12T00:21:42.776Z,8.73
2022-09-12T00:24:10.773Z,8.57
2022-09-12T00:26:38.084Z,8.90
2022-09-12T00:29:05.141Z,9.40
2022-09-12T00:31:32.573Z,9.10
2022-09-12T00:34:01.240Z,8.90
2022-09-12T00:36:31.284Z,8.80
2022-09-12T00:38:58.887Z,8.93
2022-09-12T00:41:31.438Z,10.10
2022-09-12T00:44:18.101Z,9.20
2022-09-12T00:47:01.274Z,9.25
2022-09-12T00:49:47.073Z,9.10
2022-09-12T00:52:17.136Z,9.23
2022-09-12T00:54:48.146Z,9.50
2022-09-12T00:57:16.531Z,9.77
2022-09-12T00:59:48.635Z,9.20
2022-09-12T01:02:15.957Z,10.13
2022-09-12T01:04:44.501Z,9.47
2022-09-12T01:07:11.717Z,9.48
2022-09-12T01:09:39.666Z,9.55
2022-09-12T01:12:06.742Z,8.90
2022-09-12T01:14:34.906Z,9.55
2022-09-12T01:17:01.959Z,9.13
2022-09-12T01:19:35.236Z,9.05
2022-09-12T01:22:26.141Z,9.35
2022-09-12T01:25:17.702Z,9.23
2022-09-12T01:28:12.166Z,8.95
2022-09-12T01:30:45.807Z,9.27
2022-09-12T01:33:44.874Z,8.65
2022-09-12T01:36:39.840Z,8.70
2022-09-12T01:39:23.415Z,8.63
2022-09-12T01:42:24.939Z,8.77
2022-09-12T01:45:14.418Z,9.07
2022-09-12T01:47:45.241Z,8.73
2022-09-12T01:50:18.696Z,8.88
2022-09-12T01:52:51.010Z,9.35
2022-09-12T01:55:28.535Z,8.60
2022-09-12T01:58:17.188Z,9.10
2022-09-12T02:00:50.732Z,8.98
2022-09-12T02:03:24.053Z,9.23
2022-09-12T02:05:55.113Z,8.10
2022-09-12T02:08:52.237Z,8.15
2022-09-12T02:11:19.375Z,7.63
2022-09-12T02:14:00.104Z,8.13
2022-09-12T02:17:05.338Z,8.10
2022-09-12T02:19:37.459Z,8.07
2022-09-12T02:22:05.161Z,7.80
2022-09-12T02:24:37.053Z,8.50
2022-09-12T02:27:16.019Z,7.70
2022-09-12T02:29:44.714Z,8.50
2022-09-12T02:32:27.998Z,8.15
2022-09-12T02:35:23.104Z,8.23
2022-09-12T02:38:11.535Z,8.10
2022-09-12T02:40:38.732Z,7.82
2022-09-12T02:43:06.542Z,8.07
2022-09-12T02:45:34.885Z,7.40
2022-09-12T02:48:08.925Z,8.10
2022-09-12T02:50:36.071Z,7.67
2022-09-12T02:53:05.636Z,7.35
2022-09-12T02:55:33.927Z,8.40
2022-09-12T02:58:03.816Z,8.55
2022-09-12T03:00:51.068Z,8.30
2022-09-12T03:03:33.266Z,8.37
2022-09-12T03:06:02.683Z,8.27
2022-09-12T03:08:32.515Z,8.57
2022-09-12T03:11:09.147Z,7.90
2022-09-12T03:13:50.662Z,8.15
2022-09-12T03:16:34.561Z,8.50
2022-09-12T03:19:25.523Z,7.93
2022-09-12T03:22:02.418Z,8.43
2022-09-12T03:24:34.045Z,8.25
2022-09-12T03:27:17.209Z,8.40
2022-09-12T03:29:47.387Z,8.30
2022-09-12T03:32:15.006Z,9.27
2022-09-12T03:34:41.984Z,8.88
2022-09-12T03:37:08.961Z,8.95
2022-09-12T03:39:36.021Z,8.57
2022-09-12T03:42:03.039Z,8.17
2022-09-12T03:44:30.092Z,8.80
2022-09-12T03:46:57.122Z,9.30
2022-09-12T03:49:24.105Z,9.07
2022-09-12T03:51:51.168Z,9.30
2022-09-12T03:54:18.194Z,9.53
2022-09-12T03:56:45.269Z,8.93
2022-09-12T03:59:12.269Z,8.55
2022-09-12T04:01:39.272Z,9.68
2022-09-12T04:04:09.183Z,9.45
2022-09-12T04:06:36.245Z,9.43
2022-09-12T04:09:03.923Z,9.18
2022-09-12T04:11:32.234Z,9.88
2022-09-12T04:13:59.335Z,9.23
2022-09-12T04:16:26.382Z,9.63
2022-09-12T04:18:54.185Z,8.80
2022-09-12T04:21:22.149Z,9.45
2022-09-12T04:23:49.569Z,8.93
2022-09-12T04:26:17.829Z,8.80
2022-09-12T04:28:46.261Z,8.48
2022-09-12T04:31:17.741Z,8.40
2022-09-12T04:33:45.388Z,8.45
2022-09-12T04:36:16.718Z,8.82
2022-09-12T04:38:45.168Z,9.27
2022-09-12T04:41:17.889Z,8.98
2022-09-12T04:43:48.382Z,8.50
2022-09-12T04:46:17.289Z,9.63
2022-09-12T04:48:44.350Z,9.32
2022-09-12T04:51:14.159Z,8.82
2022-09-12T04:53:41.669Z,8.40
2022-09-12T04:56:10.154Z,8.40
2022-09-12T04:58:37.793Z,8.45
2022-09-12T05:01:08.607Z,8.15
2022-09-12T05:03:35.946Z,8.48
2022-09-12T05:06:03.620Z,8.40
2022-09-12T05:08:30.613Z,8.20
2022-09-12T05:11:02.357Z,8.95
2022-09-12T05:13:29.320Z,8.43
2022-09-12T05:16:00.275Z,9.68
2022-09-12T05:18:27.774Z,9.35
2022-09-12T05:20:55.134Z,9.63
2022-09-12T05:23:22.293Z,10.15
2022-09-12T05:25:53.445Z,10.00
2022-09-12T05:28:21.373Z,9.43
2022-09-12T05:30:48.726Z,10.15
2022-09-12T05:33:16.133Z,10.60
2022-09-12T05:35:51.402Z,9.73
2022-09-12T05:38:18.688Z,10.18
2022-09-12T05:40:45.839Z,9.30
2022-09-12T05:43:12.830Z,9.73
2022-09-12T05:45:41.442Z,9.57
2022-09-12T05:48:08.492Z,9.68
2022-09-12T05:50:35.595Z,9.85
2022-09-12T05:53:02.573Z,10.23
2022-09-12T05:55:30.895Z,11.18
2022-09-12T05:57:57.897Z,10.30
2022-09-12T06:00:25.178Z,11.32
2022-09-12T06:02:53.396Z,10.88
2022-09-12T06:05:20.792Z,10.30
2022-09-12T06:07:48.666Z,10.50
2022-09-12T06:10:16.156Z,10.67
2022-09-12T06:12:43.670Z,10.80
2022-09-12T06:15:10.955Z,11.80
2022-09-12T06:17:37.939Z,10.32
2022-09-12T06:20:05.215Z,10.27
2022-09-12T06:22:32.305Z,10.83
2022-09-12T06:24:59.320Z,9.80
2022-09-12T06:27:26.591Z,10.45
2022-09-12T06:29:53.569Z,10.65
2022-09-12T06:32:20.577Z,9.80
2022-09-12T06:34:48.502Z,10.57
2022-09-12T06:37:15.522Z,10.13
2022-09-12T06:39:42.551Z,10.73
2022-09-12T06:42:10.047Z,10.38
2022-09-12T06:44:37.367Z,11.38
2022-09-12T06:47:04.448Z,10.63
2022-09-12T06:49:31.617Z,10.63
2022-09-12T06:51:58.610Z,11.50
2022-09-12T06:54:26.465Z,10.38
2022-09-12T06:56:53.467Z,11.77
2022-09-12T06:59:20.446Z,12.00
2022-09-12T07:01:47.503Z,11.57
2022-09-12T07:04:14.699Z,11.43
2022-09-12T07:06:42.869Z,12.32
2022-09-12T07:09:12.077Z,10.60
2022-09-12T07:11:40.843Z,11.53
2022-09-12T07:14:09.444Z,11.77
2022-09-12T07:16:36.708Z,10.23
2022-09-12T07:19:05.531Z,10.18
2022-09-12T07:21:33.068Z,10.90
2022-09-12T07:24:00.110Z,10.83
2022-09-12T07:26:28.855Z,10.90
2022-09-12T07:29:12.866Z,11.25
2022-09-12T07:31:44.192Z,12.07
2022-09-12T07:34:11.204Z,10.75
2022-09-12T07:36:39.099Z,11.07
2022-09-12T07:39:06.332Z,10.73
2022-09-12T07:41:36.272Z,10.40
2022-09-12T07:44:03.754Z,10.73
2022-09-12T07:46:31.612Z,10.75
2022-09-12T07:49:00.404Z,10.33
2022-09-12T07:51:28.749Z,10.82
2022-09-12T07:53:57.359Z,10.30
2022-09-12T07:56:29.349Z,11.05
2022-09-12T07:58:57.820Z,10.77
2022-09-12T08:01:24.851Z,9.93
2022-09-12T08:03:57.286Z,10.32
2022-09-12T08:06:26.125Z,10.38
2022-09-12T08:08:55.053Z,9.48
2022-09-12T08:11:23.222Z,9.90
2022-09-12T08:13:55.367Z,7.37
2022-09-12T08:16:25.835Z,8.43
2022-09-12T08:18:53.062Z,9.10
2022-09-12T08:21:22.471Z,8.45
2022-09-12T08:24:03.781Z,7.20
2022-09-12T08:26:31.740Z,7.07
2022-09-12T08:28:59.345Z,6.40
2022-09-12T08:31:27.440Z,5.50
2022-09-12T08:33:58.907Z,4.40
2022-09-12T08:36:27.414Z,4.28
2022-09-12T08:39:00.622Z,4.50
2022-09-12T08:41:46.941Z,5.93
2022-09-12T08:44:39.631Z,4.63
2022-09-12T08:47:23.667Z,4.15
2022-09-12T08:49:59.412Z,3.58
2022-09-12T08:53:05.241Z,4.10
2022-09-12T08:55:53.719Z,4.30
2022-09-12T08:58:23.254Z,4.10
2022-09-12T09:01:08.802Z,3.70
2022-09-12T09:03:54.597Z,4.10
2022-09-12T09:06:48.019Z,3.90
2022-09-12T09:09:36.061Z,3.60
2022-09-12T09:12:29.139Z,3.88
2022-09-12T09:15:12.072Z,4.13
2022-09-12T09:17:42.678Z,4.03
2022-09-12T09:20:30.079Z,4.60
2022-09-12T09:23:02.333Z,4.90
2022-09-12T09:25:53.710Z,4.88
2022-09-12T09:28:29.206Z,5.20
2022-09-12T09:30:56.296Z,5.00
2022-09-12T09:33:26.103Z,4.50
2022-09-12T09:35:59.991Z,3.80
2022-09-12T09:38:30.716Z,5.40
2022-09-12T09:41:28.413Z,4.72
2022-09-12T09:43:56.464Z,4.22
2022-09-12T09:46:23.974Z,4.63
2022-09-12T09:48:51.434Z,3.45
2022-09-12T09:51:25.059Z,2.80
2022-09-12T09:53:54.842Z,2.92
2022-09-12T09:56:31.475Z,3.08
2022-09-12T09:59:25.802Z,3.50
2022-09-12T10:01:55.423Z,3.67
2022-09-12T10:04:25.883Z,2.85
2022-09-12T10:06:54.437Z,2.50
2022-09-12T10:09:24.295Z,2.30
2022-09-12T10:11:51.851Z,2.67
2022-09-12T10:14:39.919Z,2.70
2022-09-12T10:17:34.208Z,2.90
2022-09-12T10:20:20.541Z,2.83
2022-09-12T10:22:48.686Z,2.85
2022-09-12T10:25:18.577Z,3.10
2022-09-12T10:27:52.921Z,3.38
2022-09-12T10:30:20.673Z,2.47
2022-09-12T10:32:51.065Z,2.72
2022-09-12T10:35:28.784Z,2.85
2022-09-12T10:38:02.472Z,2.90
2022-09-12T10:40:35.105Z,2.38
2022-09-12T10:43:03.276Z,2.72
2022-09-12T10:45:32.525Z,3.58
2022-09-12T10:48:06.766Z,2.92
2022-09-12T10:50:43.779Z,2.87
2022-09-12T10:53:25.724Z,3.10
2022-09-12T10:56:03.323Z,3.03
2022-09-12T10:59:14.741Z,2.88
2022-09-12T11:01:47.429Z,2.80
2022-09-12T11:04:30.284Z,3.17
2022-09-12T11:07:22.630Z,2.90
2022-09-12T11:10:09.701Z,3.05
2022-09-12T11:12:53.313Z,2.45
2022-09-12T11:15:39.429Z,2.60
2022-09-12T11:18:16.492Z,3.27
2022-09-12T11:21:19.668Z,2.80
2022-09-12T11:24:12.858Z,3.03
2022-09-12T11:26:47.944Z,2.88
2022-09-12T11:29:46.815Z,3.95
2022-09-12T11:32:45.126Z,2.80
2022-09-12T11:35:25.673Z,2.50
2022-09-12T11:38:16.940Z,2.55
2022-09-12T11:40:55.594Z,2.92
2022-09-12T11:43:41.438Z,2.80
2022-09-12T11:46:25.324Z,3.00
2022-09-12T11:48:59.973Z,2.78
2022-09-12T11:51:35.889Z,2.97
2022-09-12T11:54:10.077Z,3.30
2022-09-12T11:56:40.630Z,3.30
2022-09-12T11:59:47.873Z,3.10
2022-09-12T12:02:26.112Z,2.90
2022-09-12T12:05:21.219Z,2.83
2022-09-12T12:07:52.231Z,3.20
2022-09-12T12:10:34.830Z,2.47
2022-09-12T12:13:05.609Z,2.90
2022-09-12T12:15:36.004Z,2.83
2022-09-12T12:18:06.554Z,3.08
2022-09-12T12:20:33.795Z,3.53
2022-09-12T12:23:01.089Z,3.42
2022-09-12T12:25:51.513Z,2.67
2022-09-12T12:28:50.437Z,2.97
2022-09-12T12:31:17.962Z,2.53
2022-09-12T12:33:44.976Z,2.70
2022-09-12T12:36:38.568Z,2.80
2022-09-12T12:39:33.520Z,2.60
2022-09-12T12:42:01.210Z,2.65
2022-09-12T12:44:47.576Z,2.65
2022-09-12T12:47:18.797Z,2.28
2022-09-12T12:49:51.991Z,2.63
2022-09-12T12:52:19.470Z,2.70
2022-09-12T12:54:46.454Z,2.20
2022-09-12T12:57:13.350Z,2.53
2022-09-12T12:59:59.579Z,2.13
2022-09-12T13:02:31.054Z,2.53
2022-09-12T13:05:00.165Z,2.03
2022-09-12T13:07:34.011Z,2.10
2022-09-12T13:10:01.507Z,1.92
2022-09-12T13:12:32.749Z,2.30
2022-09-12T13:15:01.930Z,2.45
2022-09-12T13:17:33.473Z,2.10
2022-09-12T13:20:29.772Z,2.00
2022-09-12T13:22:57.824Z,2.50
2022-09-12T13:25:37.063Z,2.30
2022-09-12T13:28:16.310Z,2.13
2022-09-12T13:30:45.350Z,2.00
2022-09-12T13:33:20.057Z,2.45
2022-09-12T13:36:03.832Z,2.78
2022-09-12T13:38:34.854Z,2.78
2022-09-12T13:41:35.168Z,2.58
2022-09-12T13:44:03.620Z,2.33
2022-09-12T13:46:33.968Z,3.40
2022-09-12T13:49:05.823Z,2.33
2022-09-12T13:51:32.947Z,2.17
2022-09-12T13:54:03.467Z,2.20
2022-09-12T13:56:30.444Z,2.47
2022-09-12T13:59:00.372Z,2.50
2022-09-12T14:01:41.946Z,2.80
2022-09-12T14:04:39.992Z,3.10
2022-09-12T14:07:24.262Z,2.35
2022-09-12T14:09:56.335Z,2.27
2022-09-12T14:12:36.651Z,2.10
2022-09-12T14:15:04.006Z,2.03
2022-09-12T14:17:34.713Z,2.20
2022-09-12T14:20:07.153Z,1.70
2022-09-12T14:22:34.971Z,2.23
2022-09-12T14:25:02.135Z,2.17
2022-09-12T14:27:32.257Z,2.00
2022-09-12T14:30:03.804Z,2.25
2022-09-12T14:32:30.868Z,2.40
2022-09-12T14:35:22.638Z,2.10
2022-09-12T14:37:51.277Z,2.38
2022-09-12T14:40:21.192Z,2.53
2022-09-12T14:42:49.936Z,2.42
2022-09-12T14:45:24.360Z,2.75
2022-09-12T14:47:52.914Z,2.37
2022-09-12T14:50:24.019Z,2.53
2022-09-12T14:53:11.161Z,2.42
2022-09-12T14:55:46.470Z,2.78
2022-09-12T14:58:26.238Z,2.70
2022-09-12T15:01:02.480Z,2.77
2022-09-12T15:03:37.595Z,2.75
2022-09-12T15:06:07.894Z,2.72
2022-09-12T15:08:35.003Z,2.30
2022-09-12T15:11:02.007Z,2.47
2022-09-12T15:13:30.174Z,2.43
2022-09-12T15:15:59.099Z,2.47
2022-09-12T15:18:28.425Z,2.33
2022-09-12T15:20:57.929Z,2.35
2022-09-12T15:23:27.851Z,1.85
2022-09-12T15:25:54.836Z,1.80
2022-09-12T15:28:23.007Z,2.67
2022-09-12T15:30:51.647Z,2.47
2022-09-12T15:33:20.947Z,2.25
2022-09-12T15:35:47.981Z,2.38
2022-09-12T15:38:15.014Z,1.80
2022-09-12T15:40:42.520Z,2.40
2022-09-12T15:43:12.815Z,2.10
2022-09-12T15:45:42.412Z,2.50
2022-09-12T15:48:10.289Z,2.70
2022-09-12T15:50:37.545Z,2.50
2022-09-12T15:53:04.559Z,2.70
2022-09-12T15:55:32.272Z,2.63
2022-09-12T15:58:03.548Z,2.60
2022-09-12T16:00:33.401Z,2.50
2022-09-12T16:03:00.995Z,2.67
2022-09-12T16:05:28.172Z,2.50
2022-09-12T16:07:55.554Z,2.95
2022-09-12T16:10:28.084Z,3.03
2022-09-12T16:12:55.242Z,3.08
2022-09-12T16:15:24.597Z,2.40
2022-09-12T16:17:51.909Z,2.13
2022-09-12T16:20:19.554Z,2.47
2022-09-12T16:22:46.578Z,2.30
2022-09-12T16:25:13.852Z,2.53
2022-09-12T16:27:41.196Z,2.77
2022-09-12T16:30:08.875Z,2.60
2022-09-12T16:32:36.311Z,2.67
2022-09-12T16:35:03.558Z,2.75
2022-09-12T16:37:32.136Z,2.80
2022-09-12T16:39:59.237Z,2.57
2022-09-12T16:42:26.353Z,2.35
2022-09-12T16:44:53.343Z,2.63
2022-09-12T16:47:20.343Z,2.20
2022-09-12T16:49:47.347Z,2.60
2022-09-12T16:52:16.557Z,2.47
2022-09-12T16:54:44.393Z,2.60
2022-09-12T16:57:11.828Z,2.50
2022-09-12T16:59:38.817Z,2.40
2022-09-12T17:02:06.219Z,2.40
2022-09-12T17:04:33.331Z,3.00
2022-09-12T17:07:00.394Z,2.80
2022-09-12T17:09:28.782Z,2.20
2022-09-12T17:11:56.705Z,2.50
2022-09-12T17:14:24.491Z,2.45
2022-09-12T17:16:52.182Z,3.27
2022-09-12T17:19:26.578Z,3.40
2022-09-12T17:21:54.404Z,3.80
2022-09-12T17:24:23.084Z,3.88
2022-09-12T17:26:51.109Z,4.00
2022-09-12T17:29:18.171Z,4.50
2022-09-12T17:31:45.639Z,5.60
2022-09-12T17:34:14.549Z,9.27
2022-09-12T17:36:44.362Z,6.80
2022-09-12T17:39:12.631Z,7.00
2022-09-12T17:41:41.719Z,6.17
2022-09-12T17:44:11.395Z,6.78
2022-09-12T17:46:39.778Z,6.57
2022-09-12T17:49:18.648Z,6.40
2022-09-12T17:51:45.666Z,6.43
2022-09-12T17:54:16.002Z,5.43
2022-09-12T17:56:44.878Z,5.68
2022-09-12T17:59:15.365Z,5.00
2022-09-12T18:02:01.090Z,4.50
2022-09-12T18:04:28.278Z,4.15
2022-09-12T18:06:57.448Z,4.30
2022-09-12T18:09:27.202Z,3.55
2022-09-12T18:11:54.505Z,3.45
2022-09-12T18:14:21.920Z,3.50
2022-09-12T18:16:49.180Z,3.55
2022-09-12T18:19:16.558Z,3.30
2022-09-12T18:21:43.591Z,3.30
2022-09-12T18:24:11.175Z,6.00
2022-09-12T18:26:38.531Z,4.43
2022-09-12T18:29:05.672Z,3.63
2022-09-12T18:31:32.869Z,3.93
2022-09-12T18:34:00.326Z,4.18
2022-09-12T18:36:28.240Z,4.22
2022-09-12T18:38:57.262Z,4.00
2022-09-12T18:41:24.882Z,3.90
2022-09-12T18:43:56.066Z,3.90
2022-09-12T18:46:23.212Z,3.88
2022-09-12T18:48:50.407Z,4.78
2022-09-12T18:51:19.964Z,4.60
2022-09-12T18:53:56.031Z,4.20
2022-09-12T18:56:24.726Z,4.13
2022-09-12T18:58:53.813Z,4.57
2022-09-12T19:01:35.347Z,4.57
2022-09-12T19:04:06.110Z,4.30
2022-09-12T19:06:44.448Z,4.40
2022-09-12T19:09:16.247Z,4.13
2022-09-12T19:11:48.832Z,4.40
2022-09-12T19:14:16.907Z,4.18
2022-09-12T19:16:43.905Z,4.82
2022-09-12T19:19:10.915Z,4.00
2022-09-12T19:21:37.888Z,3.90
2022-09-12T19:24:07.188Z,4.30
2022-09-12T19:26:36.095Z,4.07
2022-09-12T19:29:03.611Z,3.88
2022-09-12T19:31:30.982Z,4.32
2022-09-12T19:34:02.549Z,4.47
2022-09-12T19:36:46.617Z,4.88
2022-09-12T19:39:16.254Z,4.38
2022-09-12T19:41:43.826Z,4.75
2022-09-12T19:44:11.625Z,4.40
2022-09-12T19:46:38.747Z,4.40
2022-09-12T19:49:05.791Z,5.40
2022-09-12T19:51:32.786Z,4.95
2022-09-12T19:53:59.821Z,4.85
2022-09-12T19:56:26.887Z,6.20
2022-09-12T19:58:56.606Z,5.67
2022-09-12T20:01:28.039Z,5.90
2022-09-12T20:03:56.496Z,5.93
2022-09-12T20:06:23.713Z,5.88
2022-09-12T20:08:50.697Z,6.65
2022-09-12T20:11:19.467Z,6.43
2022-09-12T20:13:46.889Z,5.53
2022-09-12T20:16:21.355Z,5.97
2022-09-12T20:18:56.414Z,6.35
2022-09-12T20:21:25.679Z,6.13
2022-09-12T20:23:52.810Z,6.20
2022-09-12T20:26:20.491Z,6.07
2022-09-12T20:28:47.794Z,5.20
2022-09-12T20:31:16.107Z,5.82
2022-09-12T20:33:43.682Z,5.40
2022-09-12T20:36:13.464Z,5.83
2022-09-12T20:38:41.195Z,5.13
2022-09-12T20:41:09.932Z,5.45
2022-09-12T20:43:38.523Z,5.60
2022-09-12T20:46:10.367Z,6.18
2022-09-12T20:48:38.404Z,6.07
2022-09-12T20:51:06.197Z,5.57
2022-09-12T20:53:35.188Z,6.20
2022-09-12T20:56:03.764Z,6.72
2022-09-12T20:58:30.954Z,5.65
2022-09-12T21:00:58.028Z,5.73
2022-09-12T21:03:25.575Z,6.43
2022-09-12T21:05:52.803Z,5.75
2022-09-12T21:08:19.836Z,6.30
2022-09-12T21:10:46.784Z,6.90
2022-09-12T21:13:14.015Z,6.47
2022-09-12T21:15:42.024Z,6.47
2022-09-12T21:18:09.275Z,6.68
2022-09-12T21:20:36.284Z,6.40
2022-09-12T21:23:03.259Z,7.10
2022-09-12T21:25:30.359Z,7.10
2022-09-12T21:27:57.615Z,6.55
2022-09-12T21:30:24.630Z,6.82
2022-09-12T21:32:51.698Z,6.18
2022-09-12T21:35:18.672Z,6.50
2022-09-12T21:37:45.679Z,5.60
2022-09-12T21:40:12.649Z,5.53
2022-09-12T21:42:39.747Z,5.95
2022-09-12T21:45:07.467Z,6.07
2022-09-12T21:47:34.519Z,6.55
2022-09-12T21:50:02.157Z,6.43
2022-09-12T21:52:29.350Z,6.45
2022-09-12T21:54:56.474Z,6.13
2022-09-12T21:57:23.669Z,6.53
2022-09-12T21:59:50.653Z,6.25
2022-09-12T22:02:17.730Z,6.73
2022-09-12T22:04:44.717Z,6.35
2022-09-12T22:07:11.702Z,6.65
2022-09-12T22:09:38.706Z,6.72
2022-09-12T22:12:05.747Z,7.18
2022-09-12T22:14:33.117Z,6.47
2022-09-12T22:17:00.363Z,7.30
2022-09-12T22:19:27.367Z,6.75
2022-09-12T22:22:12.751Z,6.13
2022-09-12T22:24:39.732Z,6.63
2022-09-12T22:27:07.401Z,6.50
2022-09-12T22:29:35.543Z,6.70
2022-09-12T22:32:03.683Z,7.22
2022-09-12T22:34:30.867Z,6.88
2022-09-12T22:36:57.983Z,6.38
2022-09-12T22:39:25.078Z,6.77
2022-09-12T22:41:52.068Z,6.68
2022-09-12T22:44:19.196Z,6.10
2022-09-12T22:46:46.355Z,5.40
2022-09-12T22:49:13.371Z,5.53
2022-09-12T22:51:40.461Z,5.80
2022-09-12T22:54:09.462Z,6.20
2022-09-12T22:56:36.490Z,5.60
2022-09-12T22:59:03.899Z,6.18
2022-09-12T23:01:31.855Z,5.72
2022-09-12T23:03:59.134Z,5.87
2022-09-12T23:06:26.205Z,6.10
2022-09-12T23:08:53.216Z,6.72
2022-09-12T23:11:21.432Z,6.25
2022-09-12T23:13:52.525Z,6.15
2022-09-12T23:16:22.387Z,5.90
2022-09-12T23:18:50.094Z,6.68
2022-09-12T23:21:19.147Z,6.45
2022-09-12T23:23:46.848Z,6.10
2022-09-12T23:26:19.099Z,6.55
2022-09-12T23:28:50.900Z,5.73
2022-09-12T23:31:18.296Z,5.55
2022-09-12T23:33:45.302Z,6.00
2022-09-12T23:36:14.138Z,6.00
2022-09-12T23:38:42.758Z,5.80
2022-09-12T23:41:11.108Z,5.20
2022-09-12T23:43:38.826Z,5.35
2022-09-12T23:46:06.822Z,5.22
2022-09-12T23:48:34.375Z,5.28
2022-09-12T23:51:01.518Z,5.20
2022-09-12T23:53:29.520Z,7.47
2022-09-12T23:55:56.711Z,7.22
2022-09-12T23:58:23.921Z,5.55
